Time;durP1;ratioP1;P1;durP2;ratioP2;P2;SDS_P1;SDS_P2;PMS_P1;PMS_P2;Temp;Humidity;BMP_temperature;BMP_pressure;BME280_temperature;BME280_humidity;BME280_pressure;Samples;Min_cycle;Max_cycle;Signal;HPM_P1;HPM_P2
2022/11/21 00:03:13;;;;;;;129.20;32.80;;;;;;;8.68;100.00;96348.66;10254691;28;20394;-56
2022/11/21 00:08:15;;;;;;;121.82;36.03;;;;;;;8.69;100.00;96346.06;10255143;28;20073;-56
2022/11/21 00:13:17;;;;;;;132.55;35.28;;;;;;;8.79;100.00;96376.94;10254193;28;20066;-56
2022/11/21 00:18:16;;;;;;;97.75;33.05;;;;;;;8.86;100.00;96376.81;10254742;28;20069;-56
2022/11/21 00:23:15;;;;;;;72.68;29.90;;;;;;;8.86;100.00;96358.69;10253470;28;20038;-57
2022/11/21 00:28:14;;;;;;;66.53;27.92;;;;;;;8.90;100.00;96370.72;10254077;28;20482;-57
2022/11/21 00:33:13;;;;;;;70.13;28.77;;;;;;;8.92;100.00;96370.66;10254568;28;20442;-57
2022/11/21 00:38:12;;;;;;;83.85;32.35;;;;;;;8.87;100.00;96357.81;10253971;28;20044;-57
2022/11/21 00:43:10;;;;;;;70.18;27.70;;;;;;;8.87;100.00;96347.47;10254392;28;20052;-57
2022/11/21 00:48:09;;;;;;;9.10;3.20;;;;;;;8.91;100.00;96336.19;10253583;28;20046;-57
2022/11/21 00:53:08;;;;;;;7.10;2.83;;;;;;;9.26;100.00;96290.69;10253118;28;20121;-57
2022/11/21 00:58:07;;;;;;;8.80;2.80;;;;;;;9.51;100.00;96248.78;10253127;28;20041;-57
2022/11/21 01:03:06;;;;;;;5.47;2.28;;;;;;;9.62;100.00;96239.06;10253266;28;20590;-57
2022/11/21 01:08:05;;;;;;;5.88;2.03;;;;;;;9.72;100.00;96248.38;10251538;28;20046;-57
2022/11/21 01:13:04;;;;;;;3.78;1.90;;;;;;;9.81;100.00;96231.75;10252611;28;20093;-57
2022/11/21 01:18:03;;;;;;;4.03;1.75;;;;;;;9.87;100.00;96247.16;10252249;28;20409;-57
2022/11/21 01:23:02;;;;;;;6.63;2.00;;;;;;;10.01;100.00;96254.63;10251806;28;20058;-57
2022/11/21 01:28:01;;;;;;;2.58;1.30;;;;;;;10.14;100.00;96275.91;10251351;28;20056;-56
2022/11/21 01:33:00;;;;;;;2.17;1.00;;;;;;;10.24;100.00;96281.72;10251977;28;20073;-56
2022/11/21 01:37:59;;;;;;;2.33;0.90;;;;;;;10.31;100.00;96239.25;10252089;28;20126;-56
2022/11/21 01:43:09;;;;;;;4.25;1.10;;;;;;;10.39;100.00;96219.16;10251122;28;20036;-56
2022/11/21 01:48:08;;;;;;;;;;;;;;;10.45;100.00;96208.63;10251160;28;20064;-56
2022/11/21 01:53:07;;;;;;;1.10;1.00;;;;;;;10.41;100.00;96205.25;10250682;28;19914;-56
2022/11/21 01:58:07;;;;;;;2.05;0.90;;;;;;;10.42;100.00;96187.94;10250768;28;20093;-56
2022/11/21 02:03:12;;;;;;;1.33;1.20;;;;;;;10.49;100.00;96194.69;10249626;28;20082;-57
2022/11/21 02:08:18;;;;;;;1.30;0.90;;;;;;;10.48;100.00;96194.75;10250614;28;20078;-56
2022/11/21 02:13:17;;;;;;;2.55;1.10;;;;;;;10.47;100.00;96201.69;10250219;28;20073;-56
2022/11/21 02:18:16;;;;;;;19.27;7.18;;;;;;;10.43;100.00;96212.16;10250125;28;20070;-56
2022/11/21 02:23:30;;;;;;;54.88;20.75;;;;;;;10.51;100.00;96200.69;10250154;28;20411;-56
2022/11/21 02:28:28;;;;;;;11.00;3.88;;;;;;;10.51;100.00;96208.47;10250493;28;20070;-56
2022/11/21 02:33:27;;;;;;;1.67;1.25;;;;;;;10.44;100.00;96187.91;10248984;28;20030;-56
2022/11/21 02:38:36;;;;;;;2.45;1.20;;;;;;;10.42;100.00;96172.38;10249722;28;20048;-56
2022/11/21 02:43:41;;;;;;;2.63;1.30;;;;;;;10.43;100.00;96184.47;10249429;28;20066;-56
2022/11/21 02:48:40;;;;;;;3.17;1.13;;;;;;;10.41;100.00;96168.94;10249771;28;20065;-56
2022/11/21 02:53:39;;;;;;;;;;;;;;;10.36;100.00;96155.25;10249839;28;20108;-56
2022/11/21 02:58:38;;;;;;;3.67;1.15;;;;;;;10.42;100.00;96159.41;10249583;28;19976;-56
2022/11/21 03:03:37;;;;;;;3.47;1.60;;;;;;;10.37;100.00;96156.09;10249039;28;20050;-56
2022/11/21 03:08:36;;;;;;;3.75;1.45;;;;;;;10.30;100.00;96151.97;10249264;28;20070;-56
2022/11/21 03:13:35;;;;;;;2.47;0.90;;;;;;;10.24;100.00;96139.16;10250737;28;20126;-56
2022/11/21 03:18:34;;;;;;;;;;;;;;;10.34;100.00;96148.41;10257363;28;20135;-56
2022/11/21 03:23:33;;;;;;;3.75;1.00;;;;;;;10.41;100.00;96155.13;10256440;28;20004;-56
2022/11/21 03:28:32;;;;;;;2.70;0.93;;;;;;;10.48;100.00;96161.88;10256180;28;20038;-56
2022/11/21 03:33:31;;;;;;;2.33;0.90;;;;;;;10.57;98.92;96156.44;10256009;28;20030;-56
2022/11/21 03:38:30;;;;;;;3.03;1.00;;;;;;;10.66;99.66;96151.88;10255907;28;20552;-56
2022/11/21 03:43:29;;;;;;;1.60;1.05;;;;;;;10.67;99.18;96157.03;10256105;28;20070;-56
2022/11/21 03:48:28;;;;;;;1.23;1.00;;;;;;;10.67;98.36;96154.44;10256134;28;20472;-56
2022/11/21 03:53:27;;;;;;;3.70;0.85;;;;;;;10.75;97.42;96162.00;10255771;28;20439;-56
2022/11/21 03:58:26;;;;;;;3.00;1.13;;;;;;;10.80;96.71;96162.75;10254763;28;20069;-56
2022/11/21 04:03:25;;;;;;;3.78;1.00;;;;;;;10.80;95.97;96161.00;10254593;28;20057;-57
2022/11/21 04:08:25;;;;;;;1.42;0.95;;;;;;;10.83;94.54;96162.66;10254857;28;20076;-57
2022/11/21 04:13:24;;;;;;;3.17;1.20;;;;;;;10.87;92.23;96143.56;10255249;28;20078;-57
2022/11/21 04:18:23;;;;;;;2.58;1.00;;;;;;;10.97;93.08;96137.22;10255430;28;20030;-57
2022/11/21 04:23:22;;;;;;;9.13;1.90;;;;;;;11.02;93.94;96139.66;10253536;28;20069;-57
2022/11/21 04:28:21;;;;;;;6.25;2.13;;;;;;;11.04;93.81;96136.13;10253710;28;20109;-57
2022/11/21 04:33:20;;;;;;;2.65;1.70;;;;;;;11.03;93.01;96134.44;10253911;28;20074;-57
2022/11/21 04:38:19;;;;;;;3.15;2.08;;;;;;;11.04;91.74;96156.91;10253329;28;20077;-58
2022/11/21 04:43:18;;;;;;;31.63;15.13;;;;;;;10.45;92.24;96166.28;10253779;28;20121;-56
2022/11/21 04:48:17;;;;;;;15.25;5.53;;;;;;;10.13;93.84;96161.03;10253799;28;20092;-56
2022/11/21 04:53:16;;;;;;;65.60;34.03;;;;;;;10.04;95.03;96166.44;10253141;28;20070;-56
2022/11/21 04:58:15;;;;;;;5.05;2.88;;;;;;;9.90;96.67;96184.91;10252793;28;20088;-56
2022/11/21 05:03:14;;;;;;;6.88;2.33;;;;;;;9.91;96.71;96180.56;10252391;28;20049;-56
2022/11/21 05:08:13;;;;;;;5.38;2.63;;;;;;;9.85;97.49;96189.34;10252557;28;20488;-56
2022/11/21 05:13:21;;;;;;;7.45;4.80;;;;;;;9.73;98.25;96198.25;10251722;28;20559;-56
2022/11/21 05:18:20;;;;;;;36.47;22.65;;;;;;;9.52;99.55;96216.84;10251822;28;20081;-56
2022/11/21 05:23:19;;;;;;;4.68;2.75;;;;;;;9.49;99.54;96214.34;10220171;28;20050;-56
2022/11/21 05:28:18;;;;;;;5.47;3.03;;;;;;;9.50;100.00;96214.28;10250825;28;20526;-56
2022/11/21 05:33:17;;;;;;;7.32;4.72;;;;;;;9.48;100.00;96225.56;10249776;28;20038;-56
2022/11/21 05:38:16;;;;;;;6.97;4.10;;;;;;;9.43;100.00;96240.34;10249983;28;20492;-56
2022/11/21 05:48:35;;;;;;;10.27;5.47;;;;;;;9.54;100.00;96266.88;10248280;28;20058;-56
2022/11/21 05:53:34;;;;;;;9.57;4.63;;;;;;;9.44;100.00;96278.28;10249635;28;20523;-56
2022/11/21 05:58:33;;;;;;;;;;;;;;;9.37;100.00;96281.88;10250007;28;20081;-55
2022/11/21 06:03:35;;;;;;;6.28;4.85;;;;;;;9.21;100.00;96305.47;10248291;28;19969;-56
2022/11/21 06:08:36;;;;;;;5.32;4.00;;;;;;;9.28;100.00;96316.56;10249098;28;20061;-55
2022/11/21 06:13:37;;;;;;;9.55;6.25;;;;;;;9.19;100.00;96334.84;10246229;28;20147;-55
2022/11/21 06:18:37;;;;;;;;;;;;;;;9.01;100.00;96367.91;10249671;28;20061;-55
2022/11/21 06:23:36;;;;;;;4.28;2.78;;;;;;;8.87;100.00;96381.09;10248819;28;19949;-55
2022/11/21 06:28:37;;;;;;;5.05;3.28;;;;;;;8.64;100.00;96384.03;10248493;28;20076;-55
2022/11/21 06:33:37;;;;;;;5.13;3.25;;;;;;;8.58;100.00;96398.81;10247868;28;20125;-55
2022/11/21 06:38:36;;;;;;;1.80;1.70;;;;;;;8.65;100.00;96408.19;10243667;28;20074;-55
2022/11/21 06:43:35;;;;;;;3.83;2.20;;;;;;;8.72;100.00;96435.66;10241373;28;20074;-55
2022/11/21 06:48:36;;;;;;;2.35;1.80;;;;;;;8.63;100.00;96443.56;10247281;28;20052;-56
2022/11/21 06:53:35;;;;;;;5.32;2.72;;;;;;;8.58;100.00;96435.00;10256251;28;20488;-58
2022/11/21 06:58:34;;;;;;;3.00;1.70;;;;;;;8.55;100.00;96451.41;10254089;28;20494;-58
2022/11/21 07:03:33;;;;;;;8.23;4.30;;;;;;;8.67;100.00;96447.81;10253384;28;20050;-58
2022/11/21 07:08:36;;;;;;;4.72;3.17;;;;;;;8.71;100.00;96460.63;10254537;28;20223;-57
2022/11/21 07:13:35;;;;;;;5.32;3.92;;;;;;;8.84;100.00;96469.09;10253773;28;20090;-58
2022/11/21 07:18:35;;;;;;;7.20;2.45;;;;;;;8.91;100.00;96464.69;10231810;28;20061;-57
2022/11/21 07:23:34;;;;;;;7.95;5.22;;;;;;;9.00;100.00;96482.66;10257626;28;20271;-57
2022/11/21 07:28:34;;;;;;;;;;;;;;;9.03;100.00;96481.75;10255960;28;20076;-57
2022/11/21 07:33:32;;;;;;;11.25;6.70;;;;;;;9.02;100.00;96511.06;10256705;28;20408;-57
2022/11/21 07:38:31;;;;;;;7.65;5.35;;;;;;;9.11;100.00;96519.59;10256064;28;20539;-57
2022/11/21 07:43:30;;;;;;;17.40;10.88;;;;;;;9.01;100.00;96543.88;10255901;28;20565;-56
2022/11/21 07:48:29;;;;;;;12.18;6.55;;;;;;;8.72;100.00;96567.56;10255384;28;20389;-56
2022/11/21 07:53:28;;;;;;;5.80;3.92;;;;;;;8.57;100.00;96563.41;10255539;28;20053;-57
2022/11/21 07:58:27;;;;;;;8.60;4.85;;;;;;;8.40;100.00;96553.28;10254271;28;20156;-57
2022/11/21 08:03:26;;;;;;;18.67;12.10;;;;;;;8.48;100.00;96564.41;10254908;28;20078;-57
2022/11/21 08:08:25;;;;;;;13.85;9.23;;;;;;;8.49;100.00;96578.19;10254919;28;20101;-57
2022/11/21 08:13:24;;;;;;;12.23;8.70;;;;;;;8.40;100.00;96588.63;10254192;28;20517;-58
2022/11/21 08:18:23;;;;;;;19.88;13.70;;;;;;;8.34;100.00;96576.63;10254333;28;20274;-58
2022/11/21 08:23:22;;;;;;;38.78;32.10;;;;;;;8.49;100.00;96616.97;10254289;28;20511;-57
2022/11/21 08:28:21;;;;;;;10.57;8.75;;;;;;;8.51;100.00;96590.22;10253843;28;20038;-56
2022/11/21 08:33:20;;;;;;;8.63;5.93;;;;;;;8.60;100.00;96602.19;10254157;28;20046;-56
2022/11/21 08:38:19;;;;;;;7.00;5.18;;;;;;;9.03;100.00;96613.72;10254170;28;20034;-56
2022/11/21 08:43:18;;;;;;;13.60;7.03;;;;;;;9.55;100.00;96616.44;10253730;28;20109;-56
2022/11/21 08:48:17;;;;;;;13.32;7.63;;;;;;;10.09;100.00;96625.94;10245554;28;20545;-56
2022/11/21 08:53:16;;;;;;;15.50;8.30;;;;;;;10.57;100.00;96618.16;10249098;28;20385;-56
2022/11/21 08:58:15;;;;;;;25.25;15.13;;;;;;;10.64;100.00;96633.63;10251847;28;20045;-56
2022/11/21 09:03:13;;;;;;;13.18;9.90;;;;;;;10.68;100.00;96632.66;10252658;28;20042;-57
2022/11/21 09:08:12;;;;;;;9.00;5.50;;;;;;;10.50;100.00;96636.47;10252771;28;20488;-58
2022/11/21 09:13:11;;;;;;;9.25;6.53;;;;;;;10.46;100.00;96640.84;10251749;28;20114;-56
2022/11/21 09:18:11;;;;;;;15.07;12.93;;;;;;;9.75;77.64;96636.88;10251925;28;20034;-56
2022/11/21 09:23:11;;;;;;;;;;;;;;;9.88;83.53;96636.66;10251044;28;20069;-56
2022/11/21 09:28:11;;;;;;;9.23;5.90;;;;;;;10.19;86.22;96637.88;10248824;28;19945;-56
2022/11/21 09:33:12;;;;;;;3.78;2.33;;;;;;;10.35;84.82;96637.59;10249831;28;20115;-56
2022/11/21 09:38:11;;;;;;;2.78;1.90;;;;;;;10.44;84.57;96629.63;10249505;28;20064;-56
2022/11/21 09:43:34;;;;;;;4.13;2.88;;;;;;;10.48;79.11;96618.34;10251206;28;20114;-56
2022/11/21 09:48:45;;;;;;;1.95;1.35;;;;;;;10.53;80.07;96631.22;10251539;28;20077;-56
2022/11/21 09:54:10;;;;;;;2.50;2.30;;;;;;;10.47;79.45;96616.63;10251913;28;20372;-56
2022/11/21 09:59:28;;;;;;;3.33;2.83;;;;;;;10.56;80.04;96631.16;10250842;28;20065;-56
2022/11/21 10:04:27;;;;;;;2.58;1.58;;;;;;;10.63;78.16;96622.34;10250300;28;20453;-56
2022/11/21 10:09:50;;;;;;;1.90;1.40;;;;;;;10.85;77.61;96622.81;10250466;28;20058;-56
2022/11/21 10:15:11;;;;;;;4.30;3.58;;;;;;;11.07;74.71;96622.38;10250240;28;20077;-56
2022/11/21 10:20:34;;;;;;;2.45;1.55;;;;;;;11.10;71.24;96612.78;10249772;28;20080;-56
2022/11/21 10:25:38;;;;;;;3.60;1.70;;;;;;;11.01;72.32;96628.53;10248969;28;20053;-56
2022/11/21 10:30:41;;;;;;;3.60;1.92;;;;;;;11.02;71.03;96640.66;10249793;28;20062;-56
2022/11/21 10:35:46;;;;;;;1.10;1.00;;;;;;;11.03;72.03;96642.34;10250414;28;20542;-56
2022/11/21 10:40:53;;;;;;;2.63;1.65;;;;;;;11.05;70.21;96645.78;10249677;28;20069;-56
2022/11/21 10:45:53;;;;;;;13.88;8.75;;;;;;;11.03;67.97;96658.81;10249627;28;20547;-57
2022/11/21 10:51:18;;;;;;;12.93;8.70;;;;;;;10.82;65.62;96667.84;10249089;28;20058;-57
2022/11/21 10:56:20;;;;;;;28.88;18.90;;;;;;;10.62;66.89;96668.22;10248354;28;20077;-56
2022/11/21 11:01:37;;;;;;;18.05;10.18;;;;;;;10.55;68.21;96676.13;10249359;28;20078;-57
2022/11/21 11:06:37;;;;;;;14.35;7.90;;;;;;;10.49;67.68;96677.09;10249292;28;20053;-58
2022/11/21 11:11:36;;;;;;;7.40;4.78;;;;;;;10.42;67.25;96672.91;10248994;28;20069;-57
2022/11/21 11:16:35;;;;;;;10.65;4.10;;;;;;;10.31;64.90;96667.06;10248983;28;20041;-57
2022/11/21 11:21:43;;;;;;;3.13;1.80;;;;;;;10.45;66.51;96654.72;10249064;28;20287;-57
2022/11/21 11:26:48;;;;;;;4.57;3.38;;;;;;;10.72;67.43;96662.84;10248782;28;20512;-57
2022/11/21 11:31:53;;;;;;;2.67;2.28;;;;;;;11.03;65.19;96651.03;10248576;28;20053;-57
2022/11/21 11:37:10;;;;;;;6.63;4.38;;;;;;;11.28;65.83;96660.88;10255551;28;20077;-57
2022/11/21 11:47:48;;;;;;;3.50;3.20;;;;;;;11.30;60.88;96671.25;10255597;28;20516;-57
2022/11/21 11:53:01;;;;;;;1.55;1.35;;;;;;;11.02;60.67;96672.66;10255694;28;20080;-57
2022/11/21 11:58:05;;;;;;;1.85;1.55;;;;;;;10.93;61.61;96667.66;10255705;28;20073;-57
2022/11/21 12:03:16;;;;;;;2.13;1.80;;;;;;;10.91;61.20;96659.03;10255511;28;20607;-57
2022/11/21 12:08:23;;;;;;;2.35;1.80;;;;;;;10.83;60.85;96658.31;10255347;28;20066;-57
2022/11/21 12:13:24;;;;;;;2.67;2.05;;;;;;;10.86;62.82;96660.84;10252111;28;20097;-56
2022/11/21 12:18:32;;;;;;;4.03;2.22;;;;;;;10.91;62.91;96669.41;10254926;28;20120;-57
2022/11/21 12:23:35;;;;;;;2.20;1.87;;;;;;;10.89;62.64;96671.19;10254398;28;20057;-57
2022/11/21 12:28:51;;;;;;;4.78;2.08;;;;;;;11.01;60.58;96655.38;10253091;28;20072;-57
2022/11/21 12:34:29;;;;;;;15.73;10.45;;;;;;;11.17;60.30;96653.31;10254045;28;20065;-57
2022/11/21 12:39:44;;;;;;;2.58;2.10;;;;;;;11.34;57.86;96652.97;10253556;28;20114;-57
2022/11/21 12:45:05;;;;;;;7.20;4.97;;;;;;;11.65;58.69;96647.94;10253052;28;20089;-57
2022/11/21 12:56:05;;;;;;;10.65;6.65;;;;;;;12.12;55.17;96668.47;10253920;28;20062;-57
2022/11/21 13:01:28;;;;;;;13.73;8.10;;;;;;;12.22;55.16;96680.34;10253548;28;20069;-57
2022/11/21 13:06:31;;;;;;;10.27;6.05;;;;;;;12.16;54.35;96674.44;10252764;28;20053;-57
2022/11/21 13:11:59;;;;;;;7.63;4.53;;;;;;;12.06;53.95;96681.63;10252048;28;20054;-57
2022/11/21 13:17:24;;;;;;;6.13;4.28;;;;;;;11.97;54.00;96674.03;10252347;28;20070;-57
2022/11/21 13:22:56;;;;;;;22.05;15.18;;;;;;;12.04;53.42;96653.09;10223785;28;20074;-56
2022/11/21 13:28:17;;;;;;;5.72;4.28;;;;;;;12.00;53.02;96648.00;10240550;28;20507;-56
2022/11/21 13:33:34;;;;;;;8.25;5.85;;;;;;;12.08;53.32;96661.66;10251435;28;20556;-56
2022/11/21 13:38:51;;;;;;;3.47;2.35;;;;;;;12.17;53.10;96660.56;10251785;28;20539;-56
2022/11/21 13:44:29;;;;;;;3.17;1.70;;;;;;;12.06;51.03;96659.09;10251423;28;20077;-56
2022/11/21 13:49:43;;;;;;;2.83;2.22;;;;;;;12.01;50.93;96671.34;10251420;28;20070;-56
2022/11/21 13:54:53;;;;;;;3.85;1.98;;;;;;;11.99;50.53;96672.25;10250623;28;20057;-56
2022/11/21 14:00:20;;;;;;;3.90;2.33;;;;;;;11.87;50.83;96670.81;10249839;28;20108;-57
2022/11/21 14:05:37;;;;;;;1.90;1.63;;;;;;;11.62;51.48;96667.94;10250662;28;20062;-56
2022/11/21 14:10:36;;;;;;;3.33;1.63;;;;;;;11.45;52.04;96669.19;10250265;28;20064;-56
2022/11/21 14:15:51;;;;;;;2.67;2.00;;;;;;;11.21;51.29;96661.91;10250258;28;20485;-57
2022/11/21 14:20:57;;;;;;;17.83;12.57;;;;;;;11.04;52.25;96667.44;10249988;28;20100;-57
2022/11/21 14:26:01;;;;;;;35.47;20.30;;;;;;;10.96;53.39;96683.19;10249738;28;20066;-57
2022/11/21 14:31:02;;;;;;;50.50;27.88;;;;;;;10.82;53.98;96664.38;10249920;28;20065;-57
2022/11/21 14:36:07;;;;;;;128.43;63.15;;;;;;;10.63;53.74;96676.84;10246664;28;20069;-57
2022/11/21 14:41:24;;;;;;;60.25;28.42;;;;;;;10.47;54.35;96689.25;10251056;28;20073;-56
2022/11/21 14:46:27;;;;;;;21.30;11.07;;;;;;;10.27;54.53;96696.53;10250204;28;20114;-56
2022/11/21 14:51:26;;;;;;;37.20;19.65;;;;;;;10.13;55.46;96705.38;10250906;28;20661;-58
2022/11/21 14:56:30;;;;;;;32.58;16.65;;;;;;;10.01;55.95;96690.03;10250487;28;20076;-56
2022/11/21 15:01:32;;;;;;;56.58;34.33;;;;;;;9.76;55.97;96686.94;10251022;28;20090;-57
2022/11/21 15:06:40;;;;;;;19.50;11.80;;;;;;;9.61;56.83;96700.97;10251019;28;20064;-57
2022/11/21 15:11:50;;;;;;;26.98;16.85;;;;;;;9.49;57.17;96714.13;10258270;28;20065;-57
2022/11/21 15:16:52;;;;;;;8.60;4.88;;;;;;;9.33;56.26;96709.13;10257017;28;20069;-58
2022/11/21 15:21:55;;;;;;;6.72;4.38;;;;;;;9.19;56.34;96713.59;10252649;28;20113;-57
2022/11/21 15:26:54;;;;;;;6.60;4.20;;;;;;;9.11;55.67;96726.63;10251460;28;20073;-56
2022/11/21 15:32:09;;;;;;;12.77;7.22;;;;;;;9.04;55.65;96727.53;10251873;28;20031;-56
2022/11/21 15:37:15;;;;;;;14.63;11.48;;;;;;;9.08;55.90;96743.91;10252395;28;20119;-56
2022/11/21 15:42:32;;;;;;;11.57;7.55;;;;;;;9.14;56.84;96736.09;10253205;28;20085;-57
2022/11/21 15:47:31;;;;;;;9.38;5.20;;;;;;;9.16;56.25;96760.22;10253772;28;20072;-58
2022/11/21 15:52:30;;;;;;;4.38;3.13;;;;;;;9.10;56.06;96761.13;10255083;28;20030;-57
2022/11/21 15:57:29;;;;;;;5.30;3.40;;;;;;;9.09;56.16;96758.56;10252740;28;20029;-58
2022/11/21 16:02:28;;;;;;;4.72;3.25;;;;;;;9.12;56.12;96763.72;10252959;28;20121;-57
2022/11/21 16:07:27;;;;;;;9.15;4.93;;;;;;;9.00;56.35;96769.03;10252469;28;20082;-57
2022/11/21 16:12:26;;;;;;;4.90;3.03;;;;;;;8.69;58.69;96779.66;10251491;28;20038;-57
2022/11/21 16:17:25;;;;;;;9.90;5.28;;;;;;;8.34;62.38;96783.44;10252877;28;20362;-58
2022/11/21 16:22:24;;;;;;;;;;;;;;;7.99;63.83;96778.47;10252589;28;20062;-58
2022/11/21 16:27:23;;;;;;;37.70;18.77;;;;;;;7.90;66.36;96776.84;10252350;28;20000;-57
2022/11/21 16:32:24;;;;;;;142.48;61.28;;;;;;;7.85;67.17;96784.63;10252551;28;20574;-58
2022/11/21 16:37:23;;;;;;;182.98;94.63;;;;;;;7.87;68.98;96787.16;10252083;28;20436;-58
2022/11/21 16:42:22;;;;;;;11.23;7.25;;;;;;;7.82;68.20;96781.19;10252804;28;20077;-58
2022/11/21 16:47:21;;;;;;;17.88;12.02;;;;;;;7.74;69.27;96803.63;10251394;28;20121;-58
2022/11/21 16:52:20;;;;;;;21.77;14.32;;;;;;;7.65;70.33;96802.78;10252424;28;20079;-58
2022/11/21 16:57:19;;;;;;;27.70;16.48;;;;;;;7.47;69.81;96814.91;10250618;28;20503;-58
2022/11/21 17:02:18;;;;;;;63.50;35.78;;;;;;;7.49;69.13;96820.94;10251385;28;20633;-58
2022/11/21 17:07:17;;;;;;;6.50;4.72;;;;;;;7.44;69.65;96845.03;10251035;28;20478;-57
2022/11/21 17:12:16;;;;;;;16.40;9.18;;;;;;;7.52;70.55;96847.63;10248264;28;20030;-58
2022/11/21 17:17:16;;;;;;;6.68;4.40;;;;;;;7.37;73.45;96852.78;10250948;28;20035;-57
2022/11/21 17:22:15;;;;;;;11.15;8.10;;;;;;;7.16;77.24;96864.00;10251309;28;20182;-58
2022/11/21 17:27:14;;;;;;;22.58;14.20;;;;;;;7.15;78.72;96894.13;10250102;28;20070;-58
2022/11/21 17:32:13;;;;;;;9.13;6.28;;;;;;;7.16;80.35;96916.47;10250365;28;20040;-58
2022/11/21 17:37:12;;;;;;;8.13;5.63;;;;;;;7.28;80.78;96931.06;10249882;28;20034;-57
2022/11/21 17:42:11;;;;;;;12.32;8.88;;;;;;;7.39;80.46;96943.97;10249906;28;20041;-57
2022/11/21 17:47:10;;;;;;;18.60;10.82;;;;;;;7.25;81.29;96941.41;10248000;28;20117;-57
2022/11/21 17:52:09;;;;;;;19.40;11.35;;;;;;;7.01;81.22;96947.44;10249925;28;20034;-57
2022/11/21 17:57:08;;;;;;;26.90;16.70;;;;;;;6.73;82.08;96952.59;10249133;28;20030;-57
2022/11/21 18:02:07;;;;;;;22.67;15.00;;;;;;;6.46;83.35;96973.16;10249379;28;20432;-58
2022/11/21 18:07:06;;;;;;;17.50;12.75;;;;;;;6.18;85.44;96970.47;10249646;28;20683;-59
2022/11/21 18:12:05;;;;;;;12.50;9.30;;;;;;;6.00;87.07;96978.13;10246916;28;20551;-57
2022/11/21 18:17:04;;;;;;;13.55;9.20;;;;;;;5.92;88.56;96983.25;10218815;28;20535;-57
2022/11/21 18:22:03;;;;;;;12.23;8.18;;;;;;;5.72;88.88;96989.16;10208024;28;20031;-57
2022/11/21 18:27:02;;;;;;;12.75;8.93;;;;;;;5.73;89.71;96997.75;10187030;28;20389;-58
2022/11/21 18:32:01;;;;;;;13.52;8.68;;;;;;;5.73;89.53;96996.00;10170269;28;20050;-58
2022/11/21 18:37:00;;;;;;;18.88;11.85;;;;;;;5.71;90.65;96996.88;10169140;28;20023;-58
2022/11/21 18:41:59;;;;;;;10.15;6.45;;;;;;;5.67;90.18;97006.28;10168707;28;20142;-57
2022/11/21 18:46:58;;;;;;;8.90;5.88;;;;;;;5.59;89.97;96995.06;10176434;28;20047;-57
2022/11/21 18:51:58;;;;;;;13.55;9.43;;;;;;;5.63;90.36;96998.53;10185503;28;20022;-58
2022/11/21 18:56:57;;;;;;;22.35;13.63;;;;;;;5.66;91.03;96999.41;10216966;28;20074;-58
2022/11/21 19:01:57;;;;;;;23.67;14.70;;;;;;;5.63;91.69;96998.53;10215962;28;20511;-57
2022/11/21 19:06:56;;;;;;;15.85;11.70;;;;;;;5.69;91.32;96996.84;10215884;28;20066;-56
2022/11/21 19:11:55;;;;;;;14.05;9.30;;;;;;;5.74;91.57;96991.72;10215750;28;20037;-57
2022/11/21 19:16:54;;;;;;;13.13;9.55;;;;;;;5.81;92.33;97002.91;10215675;28;20519;-57
2022/11/21 19:21:53;;;;;;;15.40;10.48;;;;;;;5.88;92.54;96994.38;10215965;28;20038;-57
2022/11/21 19:26:52;;;;;;;19.25;12.80;;;;;;;5.87;92.42;96990.94;10215146;28;20027;-57
2022/11/21 19:31:51;;;;;;;33.88;23.52;;;;;;;5.79;93.23;97000.34;10214306;28;20590;-58
2022/11/21 19:36:50;;;;;;;26.80;19.00;;;;;;;5.83;93.38;97009.78;10213496;28;20598;-57
2022/11/21 19:41:49;;;;;;;17.90;12.93;;;;;;;5.88;94.10;97008.13;10214243;28;20046;-57
2022/11/21 19:46:48;;;;;;;27.17;18.10;;;;;;;5.93;94.17;97014.16;10214975;28;20080;-58
2022/11/21 19:51:47;;;;;;;26.65;17.48;;;;;;;5.97;95.17;97010.72;10213173;28;20074;-58
2022/11/21 19:56:46;;;;;;;44.78;29.73;;;;;;;5.87;94.15;97008.13;10214059;28;20396;-58
2022/11/21 20:01:45;;;;;;;50.13;25.50;;;;;;;5.85;95.05;97014.97;10213741;28;20452;-58
2022/11/21 20:06:45;;;;;;;53.45;36.63;;;;;;;5.91;94.54;97010.72;10210388;28;20398;-58
2022/11/21 20:11:46;;;;;;;27.00;19.25;;;;;;;5.91;95.17;97010.72;10213498;28;20078;-58
2022/11/21 20:16:47;;;;;;;37.33;20.00;;;;;;;5.85;94.99;97015.81;10212737;28;20126;-58
2022/11/21 20:21:46;;;;;;;108.88;72.05;;;;;;;5.75;95.51;97024.34;10213167;28;20078;-58
2022/11/21 20:26:45;;;;;;;42.58;30.27;;;;;;;5.80;95.31;97020.09;10193311;28;20194;-58
2022/11/21 20:31:46;;;;;;;58.05;37.75;;;;;;;5.81;96.10;97024.38;10176089;28;20387;-58
2022/11/21 20:36:45;;;;;;;35.70;23.67;;;;;;;5.84;95.75;97023.56;10201212;28;20086;-58
2022/11/21 20:41:45;;;;;;;25.25;16.98;;;;;;;5.75;95.76;97020.06;10211195;28;20039;-57
2022/11/21 20:46:45;;;;;;;19.85;13.93;;;;;;;5.82;95.94;97040.72;10214088;28;20490;-58
2022/11/21 20:51:44;;;;;;;30.70;20.85;;;;;;;5.83;96.04;97047.56;10214252;28;20086;-56
2022/11/21 20:56:43;;;;;;;19.98;13.85;;;;;;;5.85;96.10;97045.88;10213605;28;20489;-58
2022/11/21 21:01:42;;;;;;;20.45;15.07;;;;;;;5.82;95.76;97046.72;10212838;28;20534;-57
2022/11/21 21:06:41;;;;;;;24.77;17.52;;;;;;;5.77;95.74;97053.56;10212385;28;20452;-57
2022/11/21 21:11:40;;;;;;;32.20;21.75;;;;;;;5.72;95.69;97060.38;10213499;28;20576;-57
2022/11/21 21:16:39;;;;;;;33.80;23.85;;;;;;;5.71;95.54;97049.19;10212314;28;20046;-57
2022/11/21 21:21:40;;;;;;;32.72;21.83;;;;;;;5.63;96.01;97061.16;10212771;28;20042;-57
2022/11/21 21:26:42;;;;;;;26.85;18.75;;;;;;;5.53;95.52;97059.34;10194195;28;20063;-58
2022/11/21 21:31:41;;;;;;;17.27;11.20;;;;;;;5.42;95.29;97059.28;10172341;28;20070;-58
2022/11/21 21:36:40;;;;;;;13.55;9.40;;;;;;;5.30;94.75;97061.78;10172691;28;20101;-58
2022/11/21 21:41:43;;;;;;;21.30;14.45;;;;;;;5.16;94.77;97063.34;10172522;28;20503;-58
2022/11/21 21:46:42;;;;;;;20.00;13.40;;;;;;;5.09;94.37;97068.44;10210904;28;20074;-58
2022/11/21 21:51:41;;;;;;;13.60;8.77;;;;;;;5.04;94.17;97064.97;10211935;28;20074;-57
2022/11/21 21:56:40;;;;;;;10.20;5.82;;;;;;;4.95;93.83;97070.03;10211127;28;20520;-58
2022/11/21 22:01:41;;;;;;;10.85;7.00;;;;;;;4.91;93.30;97071.66;10211066;28;20552;-58
2022/11/21 22:06:40;;;;;;;10.93;6.60;;;;;;;4.86;93.24;97072.47;10211236;28;20075;-57
2022/11/21 22:11:39;;;;;;;12.55;7.68;;;;;;;4.77;93.32;97070.66;10210828;28;20086;-57
2022/11/21 22:16:39;;;;;;;13.63;8.75;;;;;;;4.75;92.96;97058.63;10210559;28;20039;-57
2022/11/21 22:21:38;;;;;;;11.63;7.88;;;;;;;4.75;93.03;97064.63;10209694;28;20066;-57
2022/11/21 22:26:37;;;;;;;10.60;6.80;;;;;;;4.68;92.77;97058.56;10208878;28;20523;-57
2022/11/21 22:31:36;;;;;;;10.30;7.10;;;;;;;4.70;92.34;97080.00;10210790;28;20081;-57
2022/11/21 22:36:35;;;;;;;9.80;6.20;;;;;;;4.67;91.84;97094.53;10210704;28;20110;-57
2022/11/21 22:41:34;;;;;;;9.57;6.28;;;;;;;4.54;91.09;97101.22;10210151;28;20118;-57
2022/11/21 22:46:33;;;;;;;10.75;7.43;;;;;;;4.40;89.73;97100.19;10211123;28;20042;-57
2022/11/21 22:51:33;;;;;;;10.07;6.05;;;;;;;4.43;90.09;97106.25;10210086;28;20156;-57
2022/11/21 22:56:32;;;;;;;8.70;5.65;;;;;;;4.40;89.94;97108.75;10210886;28;20078;-57
2022/11/21 23:01:32;;;;;;;10.40;6.80;;;;;;;4.37;89.64;97110.44;10210159;28;20065;-57
2022/11/21 23:06:31;;;;;;;9.65;6.35;;;;;;;4.38;89.49;97122.41;10208889;28;20070;-57
2022/11/21 23:11:33;;;;;;;9.35;6.03;;;;;;;4.36;88.92;97124.09;10209500;28;20078;-57
2022/11/21 23:16:32;;;;;;;14.60;9.60;;;;;;;4.38;88.78;97109.56;10206342;28;20113;-57
2022/11/21 23:21:31;;;;;;;16.73;9.95;;;;;;;4.35;89.02;97117.25;10206099;28;20471;-57
2022/11/21 23:26:30;;;;;;;21.15;13.55;;;;;;;4.24;89.40;97111.97;10205630;28;20029;-57
2022/11/21 23:31:29;;;;;;;20.27;13.23;;;;;;;4.11;89.10;97118.66;10213538;28;20047;-57
2022/11/21 23:36:28;;;;;;;40.28;18.65;;;;;;;3.99;89.76;97108.22;10216536;28;20106;-57